Time;durP1;ratioP1;P1;durP2;ratioP2;P2;SDS_P1;SDS_P2;PMS_P1;PMS_P2;Temp;Humidity;BMP_temperature;BMP_pressure;BME280_temperature;BME280_humidity;BME280_pressure;Samples;Min_cycle;Max_cycle;Signal;HPM_P1;HPM_P2
2023/05/14 00:01:38;;;;;;;;;44.50;35.50;;;;;16.22;60.80;101509.59;4935722;28;45559;-71
2023/05/14 00:04:04;;;;;;;;;38.50;34.50;;;;;16.24;60.81;101532.47;4936005;28;45340;-72
2023/05/14 00:06:30;;;;;;;;;43.50;36.00;;;;;16.15;61.37;101521.13;4936525;28;45505;-72
2023/05/14 00:08:56;;;;;;;;;42.50;35.25;;;;;16.07;61.03;101522.06;4939693;28;45418;-73
2023/05/14 00:11:21;;;;;;;;;46.50;37.50;;;;;15.99;60.80;101508.03;4939467;28;45458;-74
2023/05/14 00:13:49;;;;;;;;;42.00;34.50;;;;;16.05;61.20;101534.41;4935217;28;45412;-73
2023/05/14 00:16:15;;;;;;;;;41.25;35.00;;;;;16.00;61.29;101519.47;4936376;28;45317;-72
2023/05/14 00:18:40;;;;;;;;;43.25;35.50;;;;;15.97;61.58;101525.66;4937968;28;45407;-72
2023/05/14 00:21:06;;;;;;;;;45.75;35.25;;;;;15.89;61.36;101508.97;4937379;28;45520;-72
2023/05/14 00:23:31;;;;;;;;;41.50;33.00;;;;;15.93;61.37;101520.41;4936342;28;45305;-71
2023/05/14 00:25:57;;;;;;;;;40.75;33.00;;;;;15.86;61.39;101522.22;4940111;28;45531;-72
2023/05/14 00:28:22;;;;;;;;;38.25;34.75;;;;;15.95;61.21;101529.22;4937755;28;45437;-72
2023/05/14 00:30:48;;;;;;;;;39.25;32.00;;;;;15.94;61.68;101528.31;4937009;28;46102;-73
2023/05/14 00:33:14;;;;;;;;;40.75;33.00;;;;;15.97;61.51;101541.53;4937255;28;45529;-72
2023/05/14 00:35:39;;;;;;;;;46.75;35.75;;;;;15.92;61.53;101516.88;4937252;28;45490;-72
2023/05/14 00:38:06;;;;;;;;;47.75;36.75;;;;;15.74;61.71;101485.34;4944196;28;45691;-72
2023/05/14 00:40:35;;;;;;;;;43.50;34.50;;;;;15.94;61.75;101523.03;4949782;28;46444;-71
2023/05/14 00:43:03;;;;;;;;;40.50;35.75;;;;;15.83;61.74;101511.69;4949151;28;45512;-72
2023/05/14 00:45:28;;;;;;;;;41.00;34.50;;;;;15.87;61.27;101510.75;4948999;28;45538;-71
2023/05/14 00:48:00;;;;;;;;;45.50;35.25;;;;;15.84;61.43;101505.50;4941461;28;46145;-72
2023/05/14 00:50:26;;;;;;;;;39.00;34.75;;;;;15.85;61.72;101509.88;4944125;28;46685;-71
2023/05/14 00:52:52;;;;;;;;;51.00;39.50;;;;;15.77;61.31;101498.50;4940889;28;45520;-71
2023/05/14 00:55:19;;;;;;;;;36.75;32.00;;;;;15.83;61.31;101509.03;4948160;28;45464;-71
2023/05/14 00:57:46;;;;;;;;;42.00;34.25;;;;;15.83;61.41;101502.00;4941995;28;45387;-71
2023/05/14 01:00:12;;;;;;;;;42.00;33.25;;;;;15.76;61.45;101494.13;4937177;28;46225;-71
2023/05/14 01:02:41;;;;;;;;;38.25;34.00;;;;;15.75;61.27;101493.22;4937185;28;45393;-71
2023/05/14 01:05:08;;;;;;;;;41.50;35.75;;;;;15.78;61.41;101497.63;4937203;28;45572;-71
2023/05/14 01:08:14;;;;;;;;;45.75;34.75;;;;;15.82;61.13;101504.63;4937380;28;45580;-71
2023/05/14 01:10:40;;;;;;;;;43.50;37.75;;;;;15.84;61.30;101505.50;4938350;28;45559;-72
2023/05/14 01:13:24;;;;;;;;;48.75;37.25;;;;;15.82;61.15;101504.63;4937787;28;45691;-72
2023/05/14 01:15:54;;;;;;;;;51.00;38.75;;;;;15.69;61.39;101480.06;4936034;28;45518;-73
2023/05/14 01:18:20;;;;;;;;;44.00;35.00;;;;;15.77;61.49;101506.44;4937119;28;45695;-73
2023/05/14 01:20:50;;;;;;;;;48.00;36.25;;;;;15.70;61.17;101492.38;4936482;28;45354;-73
2023/05/14 01:23:16;;;;;;;;;36.75;32.50;;;;;15.73;60.77;101509.97;4936868;28;45464;-71
2023/05/14 01:25:41;;;;;;;;;44.50;36.75;;;;;15.65;60.99;101491.53;4936992;28;45641;-72
2023/05/14 01:28:22;;;;;;;;;46.50;37.00;;;;;15.76;61.11;101507.34;4939090;28;45350;-72
2023/05/14 01:30:56;;;;;;;;;48.75;36.25;;;;;15.75;61.00;101508.22;4938442;28;46480;-72
2023/05/14 01:33:25;;;;;;;;;46.50;38.75;;;;;15.57;61.04;101480.16;4936269;28;45461;-72
2023/05/14 01:35:55;;;;;;;;;46.50;36.00;;;;;15.62;60.86;101487.13;4937799;28;45515;-73
2023/05/14 01:38:23;;;;;;;;;44.25;38.50;;;;;15.69;61.07;101504.69;4939659;28;45323;-71
2023/05/14 01:40:49;;;;;;;;;42.25;34.75;;;;;15.67;60.93;101511.75;4938916;28;46101;-72
2023/05/14 01:43:16;;;;;;;;;47.50;37.00;;;;;15.64;60.61;101495.06;4951104;28;45389;-72
2023/05/14 01:45:42;;;;;;;;;47.75;36.00;;;;;15.69;60.62;101496.78;4936797;28;45358;-71
2023/05/14 01:48:09;;;;;;;;;53.50;44.00;;;;;15.57;60.88;101483.66;4936694;28;45597;-72
2023/05/14 01:50:34;;;;;;;;;51.25;40.25;;;;;15.59;60.78;101499.47;4936316;28;46219;-72
2023/05/14 01:53:00;;;;;;;;;57.00;42.75;;;;;15.33;61.21;101462.69;4936213;28;45492;-73
2023/05/14 01:55:25;;;;;;;;;50.50;38.75;;;;;15.55;61.01;101503.91;4938897;28;45428;-73
2023/05/14 01:57:52;;;;;;;;;43.75;38.75;;;;;15.40;60.94;101477.59;4936176;28;45325;-72
2023/05/14 02:00:18;;;;;;;;;48.75;38.25;;;;;15.59;60.80;101513.56;4936213;28;45716;-72
2023/05/14 02:02:44;;;;;;;;;53.50;38.75;;;;;15.57;60.83;101509.19;4937449;28;45388;-71
2023/05/14 02:05:10;;;;;;;;;53.50;38.75;;;;;15.59;61.02;101505.66;4940030;28;45459;-72
2023/05/14 02:07:36;;;;;;;;;46.25;38.25;;;;;15.57;61.24;101502.13;4939756;28;45395;-72
2023/05/14 02:10:01;;;;;;;;;45.25;37.75;;;;;15.44;61.21;101482.84;4937268;28;45743;-72
2023/05/14 02:12:27;;;;;;;;;51.00;39.75;;;;;15.56;61.04;101505.66;4940372;28;45412;-73
2023/05/14 02:14:53;;;;;;;;;49.75;39.25;;;;;15.56;61.05;101505.66;4940239;28;45409;-72
2023/05/14 02:17:19;;;;;;;;;54.75;39.75;;;;;15.56;61.13;101504.78;4938378;28;45334;-73
2023/05/14 02:19:45;;;;;;;;;45.75;35.75;;;;;15.49;60.98;101496.00;4936059;28;46380;-72
2023/05/14 02:22:11;;;;;;;;;47.50;37.50;;;;;15.56;61.14;101505.66;4934863;28;45837;-73
2023/05/14 02:24:36;;;;;;;;;48.75;38.25;;;;;15.57;61.20;101496.00;4936233;28;45392;-73
2023/05/14 02:27:02;;;;;;;;;48.75;37.25;;;;;15.43;61.60;101482.88;4940187;28;45554;-72
2023/05/14 02:29:28;;;;;;;;;53.50;39.75;;;;;15.42;61.42;101475.81;4941724;28;47941;-73
2023/05/14 02:31:54;;;;;;;;;50.75;40.50;;;;;15.45;61.42;101484.63;4942645;28;45452;-72
2023/05/14 02:34:20;;;;;;;;;53.50;41.00;;;;;15.42;61.66;101482.00;4943143;28;45535;-73
2023/05/14 02:36:45;;;;;;;;;51.50;40.25;;;;;15.46;61.16;101499.56;4943660;28;45486;-71
2023/05/14 02:39:11;;;;;;;;;48.75;38.25;;;;;15.39;61.33;101481.13;4939254;28;45441;-73
2023/05/14 02:41:37;;;;;;;;;48.75;37.25;;;;;15.41;61.56;101490.78;4939156;28;45520;-72
2023/05/14 02:44:03;;;;;;;;;46.75;37.25;;;;;15.41;61.54;101492.56;4939028;28;45358;-71
2023/05/14 02:46:30;;;;;;;;;46.00;36.25;;;;;15.34;61.17;101481.16;4940247;28;45476;-71
2023/05/14 02:48:55;;;;;;;;;46.00;37.00;;;;;15.40;61.43;101481.13;4940506;28;48097;-71
2023/05/14 02:51:21;;;;;;;;;52.25;38.50;;;;;15.41;61.15;101482.00;4946747;28;45457;-70
2023/05/14 02:53:47;;;;;;;;;52.00;38.50;;;;;15.32;61.40;101461.81;4961177;28;45372;-71
2023/05/14 02:56:12;;;;;;;;;49.50;39.00;;;;;15.47;61.31;101495.13;4961488;28;45313;-71
2023/05/14 02:58:40;;;;;;;;;51.00;39.75;;;;;15.38;61.51;101480.25;4959888;28;46137;-71
2023/05/14 03:01:07;;;;;;;;;43.00;34.00;;;;;15.28;61.12;101457.44;4957925;28;45460;-71
2023/05/14 03:03:33;;;;;;;;;44.75;38.50;;;;;15.46;61.63;101489.00;4956634;28;45499;-70
2023/05/14 03:05:58;;;;;;;;;47.50;37.25;;;;;15.40;61.54;101485.50;4958599;28;45430;-70
2023/05/14 03:08:24;;;;;;;;;56.25;42.25;;;;;15.43;61.58;101496.06;4957762;28;46571;-71
2023/05/14 03:10:50;;;;;;;;;51.25;39.25;;;;;15.29;61.62;101475.03;4958880;28;45699;-72
2023/05/14 03:13:18;;;;;;;;;49.00;39.25;;;;;15.35;61.78;101496.13;4960042;28;45301;-71
2023/05/14 03:15:45;;;;;;;;;44.25;37.25;;;;;15.27;62.01;101477.66;4958352;28;45556;-71
2023/05/14 03:18:11;;;;;;;;;48.50;39.50;;;;;15.34;61.73;101501.41;4957488;28;46546;-72
2023/05/14 03:20:40;;;;;;;;;53.75;43.00;;;;;15.06;61.26;101464.59;4960100;28;45513;-72
2023/05/14 03:23:06;;;;;;;;;50.50;38.25;;;;;14.67;61.67;101424.34;4956914;28;45578;-71
2023/05/14 03:25:31;;;;;;;;;49.00;36.00;;;;;14.89;61.85;101476.97;4958186;28;45772;-72
2023/05/14 03:27:57;;;;;;;;;46.75;38.00;;;;;14.82;62.35;101473.50;4959248;28;45649;-71
2023/05/14 03:30:23;;;;;;;;;50.00;39.75;;;;;14.69;62.48;101472.66;4957610;28;45334;-71
2023/05/14 03:32:49;;;;;;;;;49.75;39.50;;;;;14.70;62.43;101506.03;4956639;28;45400;-71
2023/05/14 03:35:15;;;;;;;;;45.00;37.50;;;;;14.36;62.94;101469.19;4958020;28;45589;-70
2023/05/14 03:37:40;;;;;;;;;51.25;35.25;;;;;14.48;63.76;101502.56;4958829;28;45424;-71
2023/05/14 03:40:07;;;;;;;;;51.25;39.75;;;;;14.31;64.01;101480.63;4957665;28;45456;-71
2023/05/14 03:42:32;;;;;;;;;53.50;39.00;;;;;14.33;63.83;101487.66;4957146;28;45495;-71
2023/05/14 03:44:58;;;;;;;;;45.75;37.25;;;;;14.36;64.22;101484.13;4960560;28;45644;-70
2023/05/14 03:47:23;;;;;;;;;44.50;35.25;;;;;14.37;64.08;101478.84;4957943;28;45792;-71
2023/05/14 03:49:49;;;;;;;;;43.00;33.00;;;;;14.48;63.94;101492.00;4955564;28;45539;-71
2023/05/14 03:52:14;;;;;;;;;49.75;37.00;;;;;14.49;63.69;101493.75;4945085;28;46090;-72
2023/05/14 03:54:40;;;;;;;;;40.25;34.50;;;;;14.57;63.31;101502.56;4938078;28;45476;-71
2023/05/14 03:57:06;;;;;;;;;39.25;32.25;;;;;14.57;63.51;101494.66;4937635;28;47573;-71
2023/05/14 03:59:31;;;;;;;;;49.75;37.50;;;;;14.61;63.41;101499.03;4939029;28;45461;-71
2023/05/14 04:01:57;;;;;;;;;50.25;38.25;;;;;14.59;63.55;101492.00;4957516;28;45462;-70
2023/05/14 04:04:23;;;;;;;;;40.00;35.25;;;;;14.59;63.51;101502.56;4978732;28;45534;-71
2023/05/14 04:06:48;;;;;;;;;38.25;33.50;;;;;14.61;63.45;101490.25;4974788;28;46763;-70
2023/05/14 04:09:14;;;;;;;;;43.25;32.75;;;;;14.68;63.87;101502.53;4976228;28;45511;-71
2023/05/14 04:11:40;;;;;;;;;49.75;37.50;;;;;14.63;63.45;101492.00;4976758;28;45461;-71
2023/05/14 04:14:06;;;;;;;;;45.50;33.50;;;;;14.54;63.27;101480.59;4976230;28;45576;-71
2023/05/14 04:16:31;;;;;;;;;49.25;37.00;;;;;14.61;63.21;101491.13;4977356;28;46392;-72
2023/05/14 04:18:57;;;;;;;;;50.25;37.75;;;;;14.56;63.47;101500.81;4976730;28;45419;-71
2023/05/14 04:21:23;;;;;;;;;45.50;37.00;;;;;14.63;63.72;101492.00;4979050;28;45465;-71
2023/05/14 04:23:50;;;;;;;;;45.25;34.75;;;;;14.60;63.74;101486.75;4975106;28;45384;-70
2023/05/14 04:26:16;;;;;;;;;48.75;39.75;;;;;14.56;64.29;101502.56;4976293;28;45337;-71
2023/05/14 04:28:41;;;;;;;;;45.75;37.75;;;;;14.47;64.07;101494.63;4975871;28;45440;-69
2023/05/14 04:31:07;;;;;;;;;41.00;36.00;;;;;14.48;64.27;101491.16;4976461;28;45401;-70
2023/05/14 04:33:33;;;;;;;;;46.75;37.00;;;;;14.56;64.08;101502.56;4977904;28;45359;-71
2023/05/14 04:35:58;;;;;;;;;46.50;36.50;;;;;14.46;64.34;101493.78;4976467;28;45389;-71
2023/05/14 04:38:25;;;;;;;;;39.00;32.50;;;;;14.48;64.16;101483.22;4976597;28;45423;-71
2023/05/14 04:40:50;;;;;;;;;47.50;34.50;;;;;14.63;64.13;101510.44;4979160;28;45821;-71
2023/05/14 04:43:16;;;;;;;;;42.25;33.50;;;;;14.48;64.49;101483.22;4977403;28;45403;-72
2023/05/14 04:45:42;;;;;;;;;44.50;34.75;;;;;14.67;63.93;101508.69;4975998;28;46395;-71
2023/05/14 04:48:07;;;;;;;;;38.25;33.00;;;;;14.71;63.94;101507.81;4974346;28;45589;-72
2023/05/14 04:50:33;;;;;;;;;49.75;39.25;;;;;14.72;63.49;101512.19;4974216;28;45439;-71
2023/05/14 04:52:59;;;;;;;;;45.00;35.50;;;;;14.64;63.54;101495.53;4937735;28;45610;-71
2023/05/14 04:55:25;;;;;;;;;48.25;36.25;;;;;14.66;63.78;101506.94;4939818;28;45284;-71
2023/05/14 04:57:51;;;;;;;;;41.75;33.50;;;;;14.61;63.92;101493.75;4940097;28;45350;-71
2023/05/14 05:00:16;;;;;;;;;45.00;33.25;;;;;14.69;64.23;101508.69;4953091;28;45422;-71
2023/05/14 05:02:42;;;;;;;;;43.75;36.75;;;;;14.70;64.44;101502.53;4937389;28;45615;-71
2023/05/14 05:05:11;;;;;;;;;50.75;38.00;;;;;14.68;64.45;101493.75;4939614;28;46252;-70
2023/05/14 05:07:37;;;;;;;;;54.00;41.75;;;;;14.61;64.26;101506.94;4938559;28;45479;-71
2023/05/14 05:10:03;;;;;;;;;54.25;41.25;;;;;14.38;64.59;101469.19;4938568;28;45354;-71
2023/05/14 05:12:29;;;;;;;;;51.50;39.50;;;;;14.41;65.18;101487.63;4937599;28;45656;-71
2023/05/14 05:14:57;;;;;;;;;42.00;34.75;;;;;14.46;65.04;101498.16;4951462;28;46799;-72
2023/05/14 05:17:24;;;;;;;;;40.00;35.00;;;;;14.51;64.79;101505.19;4936323;28;45520;-70
2023/05/14 05:19:50;;;;;;;;;55.25;41.75;;;;;14.52;64.38;101503.41;4938498;28;45464;-71
2023/05/14 05:22:15;;;;;;;;;58.50;44.25;;;;;14.37;64.86;101499.94;4936748;28;45982;-71
2023/05/14 05:24:41;;;;;;;;;46.75;36.25;;;;;14.19;66.14;101499.97;4937903;28;45483;-71
2023/05/14 05:27:07;;;;;;;;;47.00;36.50;;;;;14.17;66.05;101502.59;4939870;28;45338;-70
2023/05/14 05:29:34;;;;;;;;;42.50;33.75;;;;;14.12;66.20;101487.69;4938528;28;45483;-71
2023/05/14 05:32:00;;;;;;;;;45.50;36.00;;;;;14.26;65.90;101496.44;4939816;28;45477;-71
2023/05/14 05:34:26;;;;;;;;;48.00;35.00;;;;;14.28;65.49;101494.66;4939121;28;45671;-71
2023/05/14 05:36:54;;;;;;;;;47.25;34.00;;;;;14.26;65.59;101487.63;4939552;28;45374;-71
2023/05/14 05:39:21;;;;;;;;;45.50;35.25;;;;;14.28;65.76;101485.88;4939663;28;45576;-71
2023/05/14 05:41:46;;;;;;;;;40.75;35.75;;;;;14.37;65.37;101494.66;4952965;28;45313;-71
2023/05/14 05:44:12;;;;;;;;;47.50;34.75;;;;;14.50;65.35;101505.16;4951067;28;46448;-71
2023/05/14 05:46:38;;;;;;;;;37.25;31.50;;;;;14.46;65.02;101503.44;4936654;28;45454;-71
2023/05/14 05:49:03;;;;;;;;;40.50;35.75;;;;;14.46;65.20;101500.81;4954424;28;45393;-70
2023/05/14 05:51:29;;;;;;;;;48.00;34.00;;;;;14.56;65.07;101513.13;4944752;28;45542;-71
2023/05/14 05:53:55;;;;;;;;;43.00;35.50;;;;;14.48;65.22;101505.19;4955991;28;45523;-71
2023/05/14 05:56:24;;;;;;;;;45.75;36.75;;;;;14.47;65.17;101502.56;4957360;28;45402;-70
2023/05/14 05:58:50;;;;;;;;;45.50;37.00;;;;;14.55;65.08;101511.38;4958952;28;45238;-70
2023/05/14 06:01:16;;;;;;;;;47.50;35.75;;;;;14.60;64.29;101528.06;4960610;28;45510;-71
2023/05/14 06:03:41;;;;;;;;;44.50;34.75;;;;;14.59;64.31;101531.56;4961996;28;45574;-70
2023/05/14 06:06:07;;;;;;;;;39.75;35.25;;;;;14.61;64.59;101537.69;4960952;28;45421;-71
2023/05/14 06:08:32;;;;;;;;;46.25;34.75;;;;;14.53;64.67;101521.88;4959732;28;45369;-71
2023/05/14 06:10:58;;;;;;;;;52.00;37.50;;;;;14.50;64.67;101520.97;4959746;28;45460;-71
2023/05/14 06:13:24;;;;;;;;;41.00;33.75;;;;;14.60;64.12;101538.59;4958924;28;45397;-72
2023/05/14 06:15:49;;;;;;;;;41.50;34.50;;;;;14.52;63.85;101530.69;4958351;28;45941;-70
2023/05/14 06:18:15;;;;;;;;;43.25;33.50;;;;;14.46;64.50;101514.00;4961944;28;45338;-71
2023/05/14 06:20:40;;;;;;;;;41.50;34.25;;;;;14.60;64.14;101544.75;4961267;28;45406;-70
2023/05/14 06:23:06;;;;;;;;;53.25;41.50;;;;;14.53;64.26;101536.81;4959014;28;45281;-72
2023/05/14 06:25:32;;;;;;;;;48.00;34.75;;;;;14.57;64.21;101559.69;4959141;28;45429;-71
2023/05/14 06:27:58;;;;;;;;;40.25;33.50;;;;;14.49;64.36;101537.69;4959772;28;45334;-71
2023/05/14 06:30:24;;;;;;;;;42.00;35.25;;;;;14.48;64.33;101539.47;4959013;28;45812;-71
2023/05/14 06:32:50;;;;;;;;;54.50;35.50;;;;;14.56;64.44;101556.16;4957333;28;47610;-72
2023/05/14 06:35:19;;;;;;;;;42.00;35.00;;;;;14.59;63.92;101561.44;4958231;28;45508;-71
2023/05/14 06:37:44;;;;;;;;;51.50;36.25;;;;;14.57;64.25;101557.06;4958922;28;45407;-71
2023/05/14 06:40:11;;;;;;;;;48.75;35.25;;;;;14.62;64.06;101563.19;4958796;28;45535;-71
2023/05/14 06:42:37;;;;;;;;;47.50;35.25;;;;;14.64;63.92;101572.00;4958661;28;45420;-69
2023/05/14 06:45:04;;;;;;;;;48.50;39.75;;;;;14.68;64.07;101570.22;4958512;28;45697;-71
2023/05/14 06:47:29;;;;;;;;;50.25;38.25;;;;;14.53;63.85;101536.81;4961201;28;45431;-71
2023/05/14 06:49:57;;;;;;;;;43.50;33.50;;;;;14.61;64.11;101564.06;4959086;28;45862;-71
2023/05/14 06:52:24;;;;;;;;;53.50;38.50;;;;;14.64;64.00;101569.34;4945181;28;45503;-71
2023/05/14 06:54:49;;;;;;;;;49.25;37.75;;;;;14.45;63.80;101521.03;4939017;28;45601;-71
2023/05/14 06:57:15;;;;;;;;;53.75;37.75;;;;;14.74;64.02;101568.44;4939117;28;45638;-71
2023/05/14 06:59:40;;;;;;;;;48.50;37.50;;;;;14.70;63.58;101550.88;4938809;28;45321;-72
2023/05/14 07:02:06;;;;;;;;;42.25;34.50;;;;;14.62;63.32;101527.16;4939490;28;45881;-71
2023/05/14 07:04:32;;;;;;;;;46.00;37.50;;;;;14.79;63.10;101555.25;4937030;28;45656;-71
2023/05/14 07:06:57;;;;;;;;;51.75;38.00;;;;;14.71;63.09;101544.72;4938989;28;45321;-71
2023/05/14 07:09:23;;;;;;;;;42.25;33.75;;;;;14.63;63.67;101539.44;4938306;28;45307;-71
2023/05/14 07:11:49;;;;;;;;;51.75;40.25;;;;;14.79;63.61;101556.13;4938100;28;46410;-71
2023/05/14 07:14:14;;;;;;;;;46.50;37.25;;;;;14.79;63.28;101565.81;4939272;28;45541;-70
2023/05/14 07:16:41;;;;;;;;;45.50;34.50;;;;;14.67;62.95;101540.34;4940564;28;45410;-71
2023/05/14 07:19:07;;;;;;;;;41.00;34.75;;;;;14.80;62.84;101565.78;4938673;28;46070;-71
2023/05/14 07:21:34;;;;;;;;;42.00;34.00;;;;;14.82;63.54;101566.66;4936962;28;46622;-71
2023/05/14 07:23:59;;;;;;;;;42.25;34.75;;;;;14.82;63.24;101557.88;4953192;28;45549;-72
2023/05/14 07:26:25;;;;;;;;;44.50;33.50;;;;;14.71;63.00;101552.66;4938493;28;45461;-71
2023/05/14 07:28:52;;;;;;;;;43.50;34.25;;;;;14.82;62.92;101571.06;4938622;28;45457;-71
2023/05/14 07:31:17;;;;;;;;;44.25;35.75;;;;;14.83;62.80;101578.97;4936340;28;45621;-71
2023/05/14 07:33:43;;;;;;;;;38.75;34.25;;;;;14.80;62.68;101560.50;4938704;28;45503;-71
2023/05/14 07:36:08;;;;;;;;;37.25;31.00;;;;;14.84;62.65;101567.53;4936855;28;45407;-72
2023/05/14 07:38:34;;;;;;;;;49.50;37.25;;;;;14.82;62.80;101564.03;4938264;28;45377;-72
2023/05/14 07:40:59;;;;;;;;;42.25;34.00;;;;;14.86;62.48;101575.47;4936516;28;47640;-70
2023/05/14 07:43:25;;;;;;;;;45.50;33.50;;;;;14.81;62.43;101564.06;4937968;28;45468;-71
2023/05/14 07:45:51;;;;;;;;;49.75;37.50;;;;;14.88;62.78;101573.69;4920511;28;45608;-71
2023/05/14 07:48:16;;;;;;;;;46.00;36.50;;;;;14.92;62.34;101580.69;4938254;28;45471;-71
2023/05/14 07:50:42;;;;;;;;;51.75;40.00;;;;;14.91;62.43;101572.81;4939039;28;45977;-72
2023/05/14 07:53:07;;;;;;;;;52.50;39.25;;;;;14.91;61.67;101563.13;4958180;28;45317;-71
2023/05/14 07:55:33;;;;;;;;;52.25;37.50;;;;;14.87;61.91;101549.97;4957474;28;45400;-71
2023/05/14 07:57:58;;;;;;;;;51.00;39.75;;;;;14.87;61.72;101544.69;4956569;28;45349;-71
2023/05/14 08:00:24;;;;;;;;;49.00;37.00;;;;;15.02;61.94;101566.63;4957264;28;45921;-73
2023/05/14 08:02:54;;;;;;;;;51.75;39.50;;;;;15.05;61.93;101563.97;4959685;28;45390;-72
2023/05/14 08:05:25;;;;;;;;;50.25;38.75;;;;;15.12;61.84;101564.84;4959296;28;45424;-72
2023/05/14 08:07:51;;;;;;;;;49.75;38.25;;;;;15.08;61.31;101560.44;4960228;28;45329;-72
2023/05/14 08:10:16;;;;;;;;;53.25;39.50;;;;;15.03;61.32;101554.31;4957678;28;46128;-71
2023/05/14 08:12:42;;;;;;;;;51.00;39.75;;;;;14.86;61.57;101537.66;4955689;28;45497;-71
2023/05/14 08:15:08;;;;;;;;;57.25;43.50;;;;;15.00;61.78;101551.69;4956646;28;45464;-71
2023/05/14 08:17:34;;;;;;;;;55.25;40.75;;;;;15.02;62.07;101558.72;4956942;28;45514;-72
2023/05/14 08:20:00;;;;;;;;;51.00;40.00;;;;;15.06;61.73;101572.75;4955389;28;46400;-71
2023/05/14 08:22:25;;;;;;;;;58.75;42.50;;;;;15.05;61.69;101566.59;4958932;28;45571;-71
2023/05/14 08:24:51;;;;;;;;;51.25;38.50;;;;;14.82;61.96;101532.38;4959739;28;45383;-71
2023/05/14 08:27:16;;;;;;;;;47.75;36.00;;;;;15.13;61.53;101581.53;4957413;28;45381;-71
2023/05/14 08:29:42;;;;;;;;;50.25;39.25;;;;;14.96;61.90;101550.81;4956861;28;46297;-71
2023/05/14 08:32:08;;;;;;;;;50.25;40.50;;;;;15.05;61.81;101563.97;4956231;28;45468;-70
2023/05/14 08:34:34;;;;;;;;;49.50;38.25;;;;;15.06;61.74;101564.84;4956838;28;45458;-70
2023/05/14 08:36:59;;;;;;;;;54.00;36.25;;;;;15.22;61.26;101584.16;4955710;28;45692;-71
2023/05/14 08:39:25;;;;;;;;;43.75;34.25;;;;;15.23;61.06;101583.25;4958948;28;45500;-72
2023/05/14 08:41:51;;;;;;;;;50.00;38.75;;;;;15.23;60.65;101576.22;4959111;28;45435;-72
2023/05/14 08:44:30;;;;;;;;;45.25;34.25;;;;;15.36;60.93;101587.59;4955134;28;45383;-72
2023/05/14 08:46:56;;;;;;;;;43.75;37.00;;;;;15.32;60.55;101570.03;4957995;28;45593;-71
2023/05/14 08:49:42;;;;;;;;;47.50;37.50;;;;;15.41;60.40;101580.53;4955876;28;45745;-71
2023/05/14 08:52:08;;;;;;;;;37.75;33.50;;;;;15.37;60.59;101568.22;4955961;28;45439;-71
2023/05/14 08:54:34;;;;;;;;;48.50;37.25;;;;;15.45;60.44;101577.00;4955635;28;45526;-72
2023/05/14 08:57:02;;;;;;;;;50.75;38.00;;;;;15.41;60.12;101569.97;4958110;28;45453;-71
2023/05/14 08:59:28;;;;;;;;;44.25;33.75;;;;;15.42;60.13;101577.03;4957881;28;45634;-70
2023/05/14 09:01:57;;;;;;;;;55.00;43.25;;;;;15.49;59.63;101580.50;4956170;28;45439;-71
2023/05/14 09:04:23;;;;;;;;;52.75;39.25;;;;;15.36;60.09;101570.91;4954953;28;45405;-71
2023/05/14 09:06:53;;;;;;;;;51.25;38.25;;;;;15.41;59.98;101577.91;4956395;28;45736;-71
2023/05/14 09:09:22;;;;;;;;;44.00;37.25;;;;;15.42;60.25;101574.41;4955880;28;45357;-71
2023/05/14 09:11:52;;;;;;;;;51.25;40.00;;;;;15.41;60.41;101580.53;4954784;28;45464;-70
2023/05/14 09:14:18;;;;;;;;;50.00;39.25;;;;;15.35;60.37;101567.38;4956226;28;45437;-69
2023/05/14 09:16:45;;;;;;;;;51.25;37.50;;;;;15.38;60.34;101570.00;4956315;28;45397;-71
2023/05/14 09:19:12;;;;;;;;;51.50;40.25;;;;;15.48;60.29;101581.41;4958007;28;45401;-71
2023/05/14 09:21:39;;;;;;;;;51.50;37.25;;;;;15.41;60.35;101561.19;4956808;28;45494;-71
2023/05/14 09:24:05;;;;;;;;;52.50;39.50;;;;;15.44;60.59;101561.16;4954756;28;45532;-71
2023/05/14 09:26:33;;;;;;;;;58.00;39.75;;;;;15.31;59.92;101530.47;4956030;28;45534;-71
2023/05/14 09:29:00;;;;;;;;;45.25;35.50;;;;;15.53;59.61;101571.69;4956381;28;45780;-72
2023/05/14 09:31:33;;;;;;;;;53.75;41.75;;;;;15.59;59.42;101579.59;4956178;28;45521;-71
2023/05/14 09:33:59;;;;;;;;;32.25;30.50;;;;;15.64;59.58;101572.50;4956223;28;45380;-72
2023/05/14 09:36:28;;;;;;;;;42.75;35.25;;;;;15.60;59.16;101546.13;4955477;28;45570;-70
2023/05/14 09:38:57;;;;;;;;;43.00;34.50;;;;;15.77;59.28;101559.25;4955639;28;45598;-71
2023/05/14 09:41:23;;;;;;;;;50.00;35.75;;;;;15.85;59.15;101568.91;4955982;28;45519;-71
2023/05/14 09:43:52;;;;;;;;;52.25;39.25;;;;;15.88;58.84;101568.88;4955361;28;45394;-71
2023/05/14 09:46:17;;;;;;;;;40.50;34.50;;;;;15.85;58.80;101557.44;4953453;28;45614;-70
2023/05/14 09:48:44;;;;;;;;;44.50;35.25;;;;;15.81;58.78;101548.66;4958752;28;45364;-70
2023/05/14 09:51:10;;;;;;;;;47.25;35.75;;;;;15.91;58.41;101567.97;4953906;28;45412;-71
2023/05/14 09:53:40;;;;;;;;;51.00;35.50;;;;;15.97;58.48;101569.69;4933857;28;45446;-71
2023/05/14 09:56:09;;;;;;;;;45.25;34.25;;;;;16.02;58.71;101573.19;4935482;28;45458;-71
2023/05/14 09:58:35;;;;;;;;;38.75;33.00;;;;;16.02;58.65;101563.50;4935120;28;45764;-72
2023/05/14 10:01:01;;;;;;;;;51.75;36.75;;;;;16.13;58.53;101570.47;4934775;28;45468;-75
2023/05/14 10:03:29;;;;;;;;;40.75;36.00;;;;;16.13;58.39;101571.31;4936126;28;45346;-71
2023/05/14 10:05:57;;;;;;;;;47.25;35.25;;;;;16.08;58.70;101554.63;4938360;28;45298;-74
2023/05/14 10:08:32;;;;;;;;;50.00;35.00;;;;;16.13;58.41;101552.81;4941738;28;45501;-72
2023/05/14 10:11:05;;;;;;;;;53.00;39.25;;;;;16.27;58.10;101574.72;4973527;28;45409;-73
2023/05/14 10:13:38;;;;;;;;;53.00;36.25;;;;;16.17;58.08;101546.63;4970212;28;45694;-70
2023/05/14 10:16:24;;;;;;;;;45.25;35.50;;;;;16.32;58.13;101567.66;4955783;28;45488;-71
2023/05/14 10:18:53;;;;;;;;;46.50;35.00;;;;;16.16;57.60;101531.69;4944655;28;48072;-71
2023/05/14 10:21:20;;;;;;;;;49.50;36.75;;;;;16.36;57.35;101555.28;4963170;28;45379;-71
2023/05/14 10:23:47;;;;;;;;;46.00;35.25;;;;;16.49;57.18;101571.91;4950941;28;45946;-71
2023/05/14 10:26:14;;;;;;;;;48.50;37.00;;;;;16.53;57.21;101574.50;4960003;28;45455;-71
2023/05/14 10:28:40;;;;;;;;;45.25;34.50;;;;;16.45;56.56;101544.63;4958859;28;47692;-71
2023/05/14 10:31:09;;;;;;;;;46.00;34.75;;;;;16.61;56.70;101558.59;4966942;28;45478;-72
2023/05/14 10:33:49;;;;;;;;;42.25;33.00;;;;;16.69;56.77;101551.44;4965566;28;45966;-72
2023/05/14 10:36:16;;;;;;;;;39.50;33.25;;;;;16.79;56.06;101557.53;4969176;28;45759;-72
2023/05/14 10:38:42;;;;;;;;;49.00;37.00;;;;;16.94;55.94;101553.84;4955488;28;46528;-70
2023/05/14 10:41:16;;;;;;;;;38.75;32.50;;;;;17.07;55.29;101552.81;4959300;28;45803;-70
2023/05/14 10:43:43;;;;;;;;;54.00;36.50;;;;;17.16;54.93;101557.13;4952167;28;45364;-71
2023/05/14 10:46:10;;;;;;;;;54.50;42.50;;;;;17.25;54.16;101559.66;4967230;28;45566;-72
2023/05/14 10:48:41;;;;;;;;;51.25;40.00;;;;;17.25;54.29;101543.78;4969416;28;46064;-72
2023/05/14 10:51:09;;;;;;;;;52.25;40.25;;;;;17.28;54.03;101522.56;4961590;28;46157;-72
2023/05/14 10:53:35;;;;;;;;;44.25;35.25;;;;;17.49;54.41;101553.19;4969399;28;45912;-72
2023/05/14 10:56:21;;;;;;;;;41.50;32.50;;;;;17.68;54.08;101543.19;4965016;28;45466;-71
2023/05/14 10:58:48;;;;;;;;;40.75;33.75;;;;;17.82;53.62;101539.47;4967085;28;48012;-71
2023/05/14 11:01:14;;;;;;;;;30.00;21.50;;;;;18.05;53.23;101547.06;4955744;28;45479;-71
2023/05/14 11:03:41;;;;;;;;;50.75;41.50;;;;;18.19;52.56;101540.63;4968191;28;45575;-71
2023/05/14 11:06:09;;;;;;;;;47.75;38.50;;;;;18.33;52.39;101539.53;4975955;28;45549;-71
2023/05/14 11:08:36;;;;;;;;;46.50;34.75;;;;;18.52;51.91;101537.44;4963645;28;45421;-71